createdAt,value
2018-09-28T00:00:11.524Z,17.62
2018-09-28T00:00:24.386Z,17.64
2018-09-28T00:00:36.148Z,17.63
2018-09-28T00:00:47.916Z,17.63
2018-09-28T00:00:59.680Z,17.63
2018-09-28T00:01:11.468Z,17.63
2018-09-28T00:01:23.375Z,17.63
2018-09-28T00:01:35.136Z,17.63
2018-09-28T00:01:46.909Z,17.63
2018-09-28T00:01:58.654Z,17.63
2018-09-28T00:02:10.420Z,17.62
2018-09-28T00:02:22.168Z,17.63
2018-09-28T00:02:33.907Z,17.63
2018-09-28T00:02:45.666Z,17.64
2018-09-28T00:02:57.443Z,17.63
2018-09-28T00:03:09.220Z,17.62
2018-09-28T00:03:20.970Z,17.64
2018-09-28T00:03:32.707Z,17.64
2018-09-28T00:03:44.442Z,17.63
2018-09-28T00:03:56.200Z,17.64
2018-09-28T00:04:07.949Z,17.63
2018-09-28T00:04:19.704Z,17.64
2018-09-28T00:04:31.442Z,17.63
2018-09-28T00:04:43.221Z,17.63
2018-09-28T00:04:54.969Z,17.64
2018-09-28T00:05:06.723Z,17.63
2018-09-28T00:05:18.477Z,17.63
2018-09-28T00:05:30.218Z,17.63
2018-09-28T00:05:41.983Z,17.64
2018-09-28T00:05:54.039Z,17.64
2018-09-28T00:06:05.808Z,17.63
2018-09-28T00:06:17.603Z,17.64
2018-09-28T00:06:29.365Z,17.64
2018-09-28T00:06:41.118Z,17.63
2018-09-28T00:06:52.859Z,17.65
2018-09-28T00:07:04.625Z,17.64
2018-09-28T00:07:16.383Z,17.64
2018-09-28T00:07:28.165Z,17.64
2018-09-28T00:07:40.000Z,17.63
2018-09-28T00:07:51.756Z,17.64
2018-09-28T00:08:03.515Z,17.63
2018-09-28T00:08:15.284Z,17.64
2018-09-28T00:08:27.050Z,17.63
2018-09-28T00:08:38.792Z,17.63
2018-09-28T00:08:50.548Z,17.64
2018-09-28T00:09:02.333Z,17.63
2018-09-28T00:09:14.089Z,17.63
2018-09-28T00:09:25.853Z,17.63
2018-09-28T00:09:37.606Z,17.63
2018-09-28T00:09:49.349Z,17.62
2018-09-28T00:10:01.094Z,17.62
2018-09-28T00:10:12.855Z,17.63
2018-09-28T00:10:24.614Z,17.62
2018-09-28T00:10:36.388Z,17.61
2018-09-28T00:10:48.134Z,17.63
2018-09-28T00:10:59.883Z,17.62
2018-09-28T00:11:11.626Z,17.62
2018-09-28T00:11:23.407Z,17.62
2018-09-28T00:11:35.167Z,17.62
2018-09-28T00:11:46.937Z,17.61
2018-09-28T00:11:58.688Z,17.62
2018-09-28T00:12:10.460Z,17.62
2018-09-28T00:12:22.210Z,17.62
2018-09-28T00:12:33.988Z,17.62
2018-09-28T00:12:45.746Z,17.62
2018-09-28T00:12:57.485Z,17.63
2018-09-28T00:13:09.237Z,17.62
2018-09-28T00:13:20.982Z,17.63
2018-09-28T00:13:32.734Z,17.62
2018-09-28T00:13:44.491Z,17.62
2018-09-28T00:13:56.260Z,17.62
2018-09-28T00:14:08.203Z,17.61
2018-09-28T00:14:19.968Z,17.62
2018-09-28T00:14:31.720Z,17.61
2018-09-28T00:14:43.482Z,17.62
2018-09-28T00:14:55.239Z,17.62
2018-09-28T00:15:07.022Z,17.61
2018-09-28T00:15:18.767Z,17.61
2018-09-28T00:15:30.517Z,17.61
2018-09-28T00:15:42.276Z,17.61
2018-09-28T00:15:54.036Z,17.61
2018-09-28T00:16:05.787Z,17.61
2018-09-28T00:16:17.573Z,17.62
2018-09-28T00:16:29.325Z,17.61
2018-09-28T00:16:41.080Z,17.61
2018-09-28T00:16:52.856Z,17.61
2018-09-28T00:17:04.615Z,17.61
2018-09-28T00:17:16.372Z,17.61
2018-09-28T00:17:28.137Z,17.61
2018-09-28T00:17:39.912Z,17.61
2018-09-28T00:17:51.706Z,17.62
2018-09-28T00:18:03.463Z,17.61
2018-09-28T00:18:15.220Z,17.62
2018-09-28T00:18:26.966Z,17.61
2018-09-28T00:18:38.724Z,17.62
2018-09-28T00:18:50.483Z,17.61
2018-09-28T00:19:02.238Z,17.61
2018-09-28T00:19:13.979Z,17.61
2018-09-28T00:19:25.734Z,17.61
2018-09-28T00:19:37.480Z,17.61
2018-09-28T00:19:49.253Z,17.62
2018-09-28T00:20:01.016Z,17.62
2018-09-28T00:20:12.788Z,17.62
2018-09-28T00:20:24.526Z,17.62
2018-09-28T00:20:36.281Z,17.62
2018-09-28T00:20:48.046Z,17.62
2018-09-28T00:20:59.794Z,17.62
2018-09-28T00:21:11.552Z,17.62
2018-09-28T00:21:23.299Z,17.61
2018-09-28T00:21:35.058Z,17.62
2018-09-28T00:21:46.810Z,17.62
2018-09-28T00:21:58.574Z,17.61
2018-09-28T00:22:10.328Z,17.62
2018-09-28T00:22:22.078Z,17.62
2018-09-28T00:22:33.974Z,17.62
2018-09-28T00:22:45.724Z,17.62
2018-09-28T00:22:57.488Z,17.62
2018-09-28T00:23:09.242Z,17.62
2018-09-28T00:23:20.999Z,17.62
2018-09-28T00:23:32.768Z,17.62
2018-09-28T00:23:44.552Z,17.61
2018-09-28T00:23:56.304Z,17.63
2018-09-28T00:24:08.160Z,17.62
2018-09-28T00:24:19.912Z,17.61
2018-09-28T00:24:31.670Z,17.61
2018-09-28T00:24:43.448Z,17.62
2018-09-28T00:24:55.196Z,17.61
2018-09-28T00:25:06.956Z,17.62
2018-09-28T00:25:18.746Z,17.62
2018-09-28T00:25:30.499Z,17.61
2018-09-28T00:25:42.383Z,17.62
2018-09-28T00:25:54.184Z,17.61
2018-09-28T00:26:05.997Z,17.61
2018-09-28T00:26:17.725Z,17.61
2018-09-28T00:26:29.480Z,17.60
2018-09-28T00:26:41.261Z,17.61
2018-09-28T00:26:53.024Z,17.60
2018-09-28T00:27:04.780Z,17.60
2018-09-28T00:27:16.534Z,17.60
2018-09-28T00:27:28.286Z,17.61
2018-09-28T00:27:40.036Z,17.59
2018-09-28T00:27:51.792Z,17.60
2018-09-28T00:28:03.537Z,17.59
2018-09-28T00:28:15.288Z,17.59
2018-09-28T00:28:27.041Z,17.59
2018-09-28T00:28:38.784Z,17.61
2018-09-28T00:28:50.535Z,17.60
2018-09-28T00:29:02.303Z,17.60
2018-09-28T00:29:14.059Z,17.60
2018-09-28T00:29:25.802Z,17.61
2018-09-28T00:29:37.559Z,17.61
2018-09-28T00:29:49.321Z,17.60
2018-09-28T00:30:01.079Z,17.61
2018-09-28T00:30:12.888Z,17.60
2018-09-28T00:30:24.652Z,17.60
2018-09-28T00:30:36.418Z,17.60
2018-09-28T00:30:48.187Z,17.61
2018-09-28T00:30:59.944Z,17.60
2018-09-28T00:31:11.703Z,17.61
2018-09-28T00:31:23.452Z,17.60
2018-09-28T00:31:35.223Z,17.59
2018-09-28T00:31:46.993Z,17.59
2018-09-28T00:31:58.764Z,17.60
2018-09-28T00:32:10.520Z,17.60
2018-09-28T00:32:22.277Z,17.60
2018-09-28T00:32:34.034Z,17.59
2018-09-28T00:32:45.799Z,17.59
2018-09-28T00:32:57.542Z,17.58
2018-09-28T00:33:09.299Z,17.59
2018-09-28T00:33:21.046Z,17.60
2018-09-28T00:33:32.811Z,17.59
2018-09-28T00:33:44.562Z,17.59
2018-09-28T00:33:56.320Z,17.60
2018-09-28T00:34:08.073Z,17.59
2018-09-28T00:34:19.851Z,17.58
2018-09-28T00:34:31.605Z,17.59
2018-09-28T00:34:43.357Z,17.59
2018-09-28T00:34:55.102Z,17.58
2018-09-28T00:35:06.865Z,17.58
2018-09-28T00:35:18.618Z,17.59
2018-09-28T00:35:30.387Z,17.59
2018-09-28T00:35:42.172Z,17.58
2018-09-28T00:35:53.995Z,17.58
2018-09-28T00:36:05.736Z,17.58
2018-09-28T00:36:17.484Z,17.59
2018-09-28T00:36:29.227Z,17.58
2018-09-28T00:36:40.972Z,17.59
2018-09-28T00:36:52.743Z,17.59
2018-09-28T00:37:04.509Z,17.58
2018-09-28T00:37:16.270Z,17.57
2018-09-28T00:37:28.014Z,17.58
2018-09-28T00:37:39.784Z,17.58
2018-09-28T00:37:51.517Z,17.58
2018-09-28T00:38:03.356Z,17.58
2018-09-28T00:38:15.132Z,17.58
2018-09-28T00:38:26.878Z,17.59
2018-09-28T00:38:38.647Z,17.57
2018-09-28T00:38:50.404Z,17.58
2018-09-28T00:39:02.152Z,17.58
2018-09-28T00:39:13.995Z,17.58
2018-09-28T00:39:25.741Z,17.58
2018-09-28T00:39:37.490Z,17.58
2018-09-28T00:39:49.255Z,17.58
2018-09-28T00:40:01.030Z,17.58
2018-09-28T00:40:12.785Z,17.57
2018-09-28T00:40:24.547Z,17.58
2018-09-28T00:40:36.459Z,17.58
2018-09-28T00:40:48.220Z,17.58
2018-09-28T00:40:59.967Z,17.57
2018-09-28T00:41:11.738Z,17.58
2018-09-28T00:41:23.493Z,17.57
2018-09-28T00:41:35.265Z,17.58
2018-09-28T00:41:47.020Z,17.57
2018-09-28T00:41:58.788Z,17.57
2018-09-28T00:42:10.552Z,17.57
2018-09-28T00:42:22.307Z,17.56
2018-09-28T00:42:34.043Z,17.56
2018-09-28T00:42:45.819Z,17.57
2018-09-28T00:42:57.596Z,17.57
2018-09-28T00:43:09.334Z,17.55
2018-09-28T00:43:21.095Z,17.56
2018-09-28T00:43:32.860Z,17.57
2018-09-28T00:43:44.599Z,17.57
2018-09-28T00:43:56.341Z,17.57
2018-09-28T00:44:08.100Z,17.58
2018-09-28T00:44:19.844Z,17.57
2018-09-28T00:44:31.600Z,17.58
2018-09-28T00:44:43.355Z,17.57
2018-09-28T00:44:55.124Z,17.56
2018-09-28T00:45:06.866Z,17.57
2018-09-28T00:45:18.612Z,17.56
2018-09-28T00:45:30.370Z,17.57
2018-09-28T00:45:42.130Z,17.57
2018-09-28T00:45:53.875Z,17.57
2018-09-28T00:46:05.626Z,17.57
2018-09-28T00:46:17.376Z,17.57
2018-09-28T00:46:29.143Z,17.57
2018-09-28T00:46:40.913Z,17.57
2018-09-28T00:46:52.668Z,17.57
2018-09-28T00:47:04.454Z,17.57
2018-09-28T00:47:16.212Z,17.57
2018-09-28T00:47:27.980Z,17.57
2018-09-28T00:47:39.735Z,17.57
2018-09-28T00:47:51.495Z,17.56
2018-09-28T00:48:03.434Z,17.57
2018-09-28T00:48:15.495Z,17.57
2018-09-28T00:48:27.253Z,17.57
2018-09-28T00:48:39.004Z,17.57
2018-09-28T00:48:50.751Z,17.57
2018-09-28T00:49:02.626Z,17.57
2018-09-28T00:49:14.374Z,17.55
2018-09-28T00:49:26.127Z,17.57
2018-09-28T00:49:37.930Z,17.57
2018-09-28T00:49:49.696Z,17.57
2018-09-28T00:50:01.592Z,17.57
2018-09-28T00:50:13.348Z,17.57
2018-09-28T00:50:25.223Z,17.56
2018-09-28T00:50:36.978Z,17.56
2018-09-28T00:50:48.728Z,17.56
2018-09-28T00:51:00.485Z,17.57
2018-09-28T00:51:12.240Z,17.57
2018-09-28T00:51:23.987Z,17.57
2018-09-28T00:51:35.760Z,17.56
2018-09-28T00:51:47.524Z,17.56
2018-09-28T00:51:59.300Z,17.57
2018-09-28T00:52:11.057Z,17.56
2018-09-28T00:52:22.802Z,17.56
2018-09-28T00:52:34.560Z,17.57
2018-09-28T00:52:46.316Z,17.56
2018-09-28T00:52:58.085Z,17.57
2018-09-28T00:53:09.856Z,17.56
2018-09-28T00:53:21.621Z,17.56
2018-09-28T00:53:33.376Z,17.55
2018-09-28T00:53:45.131Z,17.56
2018-09-28T00:53:56.883Z,17.55
2018-09-28T00:54:08.643Z,17.56
2018-09-28T00:54:20.404Z,17.56
2018-09-28T00:54:32.139Z,17.55
2018-09-28T00:54:44.006Z,17.55
2018-09-28T00:54:55.756Z,17.56
2018-09-28T00:55:07.498Z,17.55
2018-09-28T00:55:19.254Z,17.55
2018-09-28T00:55:30.994Z,17.55
2018-09-28T00:55:42.747Z,17.56
2018-09-28T00:55:54.512Z,17.56
2018-09-28T00:56:06.263Z,17.56
2018-09-28T00:56:18.106Z,17.55
2018-09-28T00:56:29.860Z,17.55
2018-09-28T00:56:41.618Z,17.54
2018-09-28T00:56:53.383Z,17.55
2018-09-28T00:57:05.140Z,17.56
2018-09-28T00:57:16.911Z,17.55
2018-09-28T00:57:28.672Z,17.55
2018-09-28T00:57:40.424Z,17.54
2018-09-28T00:57:52.171Z,17.55
2018-09-28T00:58:03.918Z,17.55
2018-09-28T00:58:15.667Z,17.55
2018-09-28T00:58:27.443Z,17.55
2018-09-28T00:58:39.199Z,17.55
2018-09-28T00:58:50.954Z,17.54
2018-09-28T00:59:02.728Z,17.54
2018-09-28T00:59:14.523Z,17.55
2018-09-28T00:59:26.306Z,17.55
2018-09-28T00:59:38.063Z,17.55
2018-09-28T00:59:49.826Z,17.56
2018-09-28T01:00:01.600Z,17.55
2018-09-28T01:00:13.370Z,17.55
2018-09-28T01:00:25.139Z,17.54
2018-09-28T01:00:36.902Z,17.56
2018-09-28T01:00:48.647Z,17.57
2018-09-28T01:01:00.395Z,17.57
2018-09-28T01:01:12.159Z,17.56
2018-09-28T01:01:23.921Z,17.55
2018-09-28T01:01:35.663Z,17.56
2018-09-28T01:01:47.406Z,17.55
2018-09-28T01:01:59.154Z,17.55
2018-09-28T01:02:10.923Z,17.55
2018-09-28T01:02:22.707Z,17.54
2018-09-28T01:02:34.492Z,17.54
2018-09-28T01:02:46.253Z,17.54
2018-09-28T01:02:58.013Z,17.54
2018-09-28T01:03:09.759Z,17.54
2018-09-28T01:03:21.516Z,17.54
2018-09-28T01:03:33.271Z,17.54
2018-09-28T01:03:45.023Z,17.54
2018-09-28T01:03:56.781Z,17.54
2018-09-28T01:04:08.551Z,17.54
2018-09-28T01:04:20.308Z,17.54
2018-09-28T01:04:32.053Z,17.53
2018-09-28T01:04:43.812Z,17.53
2018-09-28T01:04:55.564Z,17.54
2018-09-28T01:05:07.319Z,17.54
2018-09-28T01:05:19.073Z,17.54
2018-09-28T01:05:30.830Z,17.54
2018-09-28T01:05:42.587Z,17.54
2018-09-28T01:05:54.347Z,17.53
2018-09-28T01:06:06.086Z,17.54
2018-09-28T01:06:17.837Z,17.54
2018-09-28T01:06:29.597Z,17.54
2018-09-28T01:06:41.342Z,17.53
2018-09-28T01:06:53.075Z,17.54
2018-09-28T01:07:04.844Z,17.53
2018-09-28T01:07:16.602Z,17.54
2018-09-28T01:07:28.388Z,17.54
2018-09-28T01:07:40.142Z,17.54
2018-09-28T01:07:51.904Z,17.54
2018-09-28T01:08:03.651Z,17.54
2018-09-28T01:08:15.405Z,17.55
2018-09-28T01:08:27.163Z,17.55
2018-09-28T01:08:38.936Z,17.55
2018-09-28T01:08:50.706Z,17.55
2018-09-28T01:09:02.457Z,17.54
2018-09-28T01:09:15.240Z,17.54
2018-09-28T01:09:26.996Z,17.54
2018-09-28T01:09:38.749Z,17.54
2018-09-28T01:09:50.516Z,17.54
2018-09-28T01:10:02.284Z,17.54
2018-09-28T01:10:14.049Z,17.53
2018-09-28T01:10:25.795Z,17.54
2018-09-28T01:10:37.547Z,17.54
2018-09-28T01:10:49.307Z,17.54
2018-09-28T01:11:01.067Z,17.54
2018-09-28T01:11:12.825Z,17.54
2018-09-28T01:11:24.586Z,17.53
2018-09-28T01:11:36.357Z,17.55
2018-09-28T01:11:48.123Z,17.53
2018-09-28T01:11:59.888Z,17.54
2018-09-28T01:12:11.634Z,17.53
2018-09-28T01:12:23.382Z,17.54
2018-09-28T01:12:35.163Z,17.54
2018-09-28T01:12:46.935Z,17.54
2018-09-28T01:12:58.692Z,17.54
2018-09-28T01:13:10.447Z,17.53
2018-09-28T01:13:22.206Z,17.53
2018-09-28T01:13:33.980Z,17.54
2018-09-28T01:13:45.727Z,17.54
2018-09-28T01:13:57.494Z,17.52
2018-09-28T01:14:09.287Z,17.52
2018-09-28T01:14:21.054Z,17.52
2018-09-28T01:14:32.850Z,17.52
2018-09-28T01:14:44.607Z,17.52
2018-09-28T01:14:56.363Z,17.52
2018-09-28T01:15:08.131Z,17.52
2018-09-28T01:15:19.914Z,17.53
2018-09-28T01:15:31.659Z,17.53
2018-09-28T01:15:43.440Z,17.53
2018-09-28T01:15:55.194Z,17.52
2018-09-28T01:16:06.960Z,17.52
2018-09-28T01:16:18.719Z,17.53
2018-09-28T01:16:30.463Z,17.52
2018-09-28T01:16:42.225Z,17.52
2018-09-28T01:16:53.975Z,17.52
2018-09-28T01:17:05.722Z,17.51
2018-09-28T01:17:17.495Z,17.52
2018-09-28T01:17:29.264Z,17.52
2018-09-28T01:17:41.041Z,17.51
2018-09-28T01:17:52.792Z,17.50
2018-09-28T01:18:04.548Z,17.51
2018-09-28T01:18:16.303Z,17.49
2018-09-28T01:18:28.059Z,17.50
2018-09-28T01:18:39.832Z,17.50
2018-09-28T01:18:51.599Z,17.49
2018-09-28T01:19:03.361Z,17.51
2018-09-28T01:19:15.120Z,17.52
2018-09-28T01:19:26.875Z,17.52
2018-09-28T01:19:38.631Z,17.52
2018-09-28T01:19:50.383Z,17.51
2018-09-28T01:20:02.134Z,17.52
2018-09-28T01:20:13.897Z,17.51
2018-09-28T01:20:25.671Z,17.51
2018-09-28T01:20:37.430Z,17.51
2018-09-28T01:20:49.180Z,17.52
2018-09-28T01:21:00.931Z,17.53
2018-09-28T01:21:12.685Z,17.52
2018-09-28T01:21:24.450Z,17.53
2018-09-28T01:21:36.220Z,17.53
2018-09-28T01:21:47.969Z,17.53
2018-09-28T01:21:59.723Z,17.52
2018-09-28T01:22:11.466Z,17.54
2018-09-28T01:22:23.211Z,17.54
2018-09-28T01:22:34.969Z,17.52
2018-09-28T01:22:47.003Z,17.53
2018-09-28T01:22:58.764Z,17.53
2018-09-28T01:23:10.521Z,17.52
2018-09-28T01:23:22.270Z,17.52
2018-09-28T01:23:34.060Z,17.51
2018-09-28T01:23:45.825Z,17.52
2018-09-28T01:23:57.575Z,17.51
2018-09-28T01:24:09.320Z,17.51
2018-09-28T01:24:21.076Z,17.51
2018-09-28T01:24:32.830Z,17.51
2018-09-28T01:24:44.578Z,17.51
2018-09-28T01:24:56.325Z,17.51
2018-09-28T01:25:08.066Z,17.49
2018-09-28T01:25:19.806Z,17.51
2018-09-28T01:25:31.750Z,17.51
2018-09-28T01:25:43.503Z,17.51
2018-09-28T01:25:55.255Z,17.50
2018-09-28T01:26:07.012Z,17.49
2018-09-28T01:26:18.747Z,17.50
2018-09-28T01:26:30.492Z,17.50
2018-09-28T01:26:42.257Z,17.51
2018-09-28T01:26:54.019Z,17.51
2018-09-28T01:27:05.777Z,17.50
2018-09-28T01:27:17.544Z,17.51
2018-09-28T01:27:29.298Z,17.49
2018-09-28T01:27:41.036Z,17.50
2018-09-28T01:27:52.820Z,17.49
2018-09-28T01:28:04.567Z,17.50
2018-09-28T01:28:16.318Z,17.50
2018-09-28T01:28:28.059Z,17.49
2018-09-28T01:28:39.802Z,17.49
2018-09-28T01:28:51.571Z,17.49
2018-09-28T01:29:03.344Z,17.48
2018-09-28T01:29:15.094Z,17.49
2018-09-28T01:29:26.846Z,17.50
2018-09-28T01:29:38.596Z,17.51
2018-09-28T01:29:50.338Z,17.51
2018-09-28T01:30:02.104Z,17.50
2018-09-28T01:30:13.851Z,17.50
2018-09-28T01:30:25.611Z,17.50
2018-09-28T01:30:37.372Z,17.51
2018-09-28T01:30:49.156Z,17.51
2018-09-28T01:31:00.906Z,17.50
2018-09-28T01:31:12.662Z,17.50
2018-09-28T01:31:24.397Z,17.50
2018-09-28T01:31:36.144Z,17.49
2018-09-28T01:31:47.903Z,17.50
2018-09-28T01:31:59.697Z,17.49
2018-09-28T01:32:11.465Z,17.49
2018-09-28T01:32:23.214Z,17.51
2018-09-28T01:32:34.994Z,17.52
2018-09-28T01:32:46.751Z,17.50
2018-09-28T01:32:58.525Z,17.51
2018-09-28T01:33:10.286Z,17.49
2018-09-28T01:33:22.036Z,17.50
2018-09-28T01:33:33.782Z,17.49
2018-09-28T01:33:45.539Z,17.50
2018-09-28T01:33:57.485Z,17.49
2018-09-28T01:34:09.222Z,17.49
2018-09-28T01:34:20.984Z,17.50
2018-09-28T01:34:32.742Z,17.49
2018-09-28T01:34:44.505Z,17.48
2018-09-28T01:34:56.255Z,17.48
2018-09-28T01:35:07.997Z,17.48
2018-09-28T01:35:19.739Z,17.48
2018-09-28T01:35:31.501Z,17.49
2018-09-28T01:35:43.249Z,17.48
2018-09-28T01:35:55.039Z,17.49
2018-09-28T01:36:06.792Z,17.49
2018-09-28T01:36:18.545Z,17.48
2018-09-28T01:36:30.293Z,17.48
2018-09-28T01:36:42.050Z,17.49
2018-09-28T01:36:53.807Z,17.48
2018-09-28T01:37:05.559Z,17.49
2018-09-28T01:37:17.314Z,17.50
2018-09-28T01:37:29.082Z,17.48
2018-09-28T01:37:40.838Z,17.48
2018-09-28T01:37:52.627Z,17.49
2018-09-28T01:38:04.427Z,17.49
2018-09-28T01:38:16.200Z,17.48
2018-09-28T01:38:27.971Z,17.49
2018-09-28T01:38:39.728Z,17.49
2018-09-28T01:38:51.475Z,17.49
2018-09-28T01:39:03.229Z,17.48
2018-09-28T01:39:14.992Z,17.48
2018-09-28T01:39:26.750Z,17.49
2018-09-28T01:39:38.506Z,17.49
2018-09-28T01:39:50.251Z,17.48
2018-09-28T01:40:02.000Z,17.49
2018-09-28T01:40:13.779Z,17.48
2018-09-28T01:40:25.539Z,17.49
2018-09-28T01:40:37.311Z,17.48
2018-09-28T01:40:49.062Z,17.48
2018-09-28T01:41:00.814Z,17.47
2018-09-28T01:41:12.572Z,17.48
2018-09-28T01:41:24.314Z,17.47
2018-09-28T01:41:36.091Z,17.47
2018-09-28T01:41:47.858Z,17.48
2018-09-28T01:41:59.617Z,17.47
2018-09-28T01:42:11.390Z,17.48
2018-09-28T01:42:23.147Z,17.47
2018-09-28T01:42:34.906Z,17.46
2018-09-28T01:42:46.655Z,17.47
2018-09-28T01:42:58.414Z,17.48
2018-09-28T01:43:10.188Z,17.49
2018-09-28T01:43:21.941Z,17.47
2018-09-28T01:43:34.202Z,17.48
2018-09-28T01:43:45.947Z,17.49
2018-09-28T01:43:57.699Z,17.49
2018-09-28T01:44:09.459Z,17.48
2018-09-28T01:44:21.247Z,17.48
2018-09-28T01:44:33.010Z,17.49
2018-09-28T01:44:44.754Z,17.49
2018-09-28T01:44:56.535Z,17.49
2018-09-28T01:45:08.300Z,17.48
2018-09-28T01:45:20.043Z,17.49
2018-09-28T01:45:31.793Z,17.49
2018-09-28T01:45:43.551Z,17.48
2018-09-28T01:45:55.286Z,17.48
2018-09-28T01:46:07.055Z,17.49
2018-09-28T01:46:18.815Z,17.49
2018-09-28T01:46:30.571Z,17.48
2018-09-28T01:46:42.310Z,17.47
2018-09-28T01:46:54.067Z,17.49
2018-09-28T01:47:05.826Z,17.48
2018-09-28T01:47:17.588Z,17.48
2018-09-28T01:47:29.345Z,17.48
2018-09-28T01:47:41.091Z,17.48
2018-09-28T01:47:52.825Z,17.47
2018-09-28T01:48:04.615Z,17.47
2018-09-28T01:48:16.402Z,17.48
2018-09-28T01:48:28.165Z,17.47
2018-09-28T01:48:39.919Z,17.48
2018-09-28T01:48:51.678Z,17.48
2018-09-28T01:49:03.426Z,17.48
2018-09-28T01:49:15.185Z,17.47
2018-09-28T01:49:26.938Z,17.47
2018-09-28T01:49:38.673Z,17.47
2018-09-28T01:49:50.449Z,17.48
2018-09-28T01:50:02.214Z,17.48
2018-09-28T01:50:13.980Z,17.47
2018-09-28T01:50:25.733Z,17.47
2018-09-28T01:50:37.482Z,17.46
2018-09-28T01:50:49.235Z,17.47
2018-09-28T01:51:00.978Z,17.46
2018-09-28T01:51:12.732Z,17.45
2018-09-28T01:51:24.491Z,17.46
2018-09-28T01:51:36.255Z,17.47
2018-09-28T01:51:48.024Z,17.46
2018-09-28T01:51:59.789Z,17.47
2018-09-28T01:52:11.654Z,17.47
2018-09-28T01:52:23.415Z,17.46
2018-09-28T01:52:35.162Z,17.47
2018-09-28T01:52:46.909Z,17.47
2018-09-28T01:52:58.747Z,17.46
2018-09-28T01:53:10.491Z,17.47
2018-09-28T01:53:22.237Z,17.46
2018-09-28T01:53:33.994Z,17.46
2018-09-28T01:53:45.752Z,17.47
2018-09-28T01:53:57.512Z,17.46
2018-09-28T01:54:09.263Z,17.46
2018-09-28T01:54:21.004Z,17.46
2018-09-28T01:54:32.759Z,17.47
2018-09-28T01:54:44.519Z,17.46
2018-09-28T01:54:56.282Z,17.47
2018-09-28T01:55:08.052Z,17.46
2018-09-28T01:55:19.803Z,17.45
2018-09-28T01:55:31.538Z,17.46
2018-09-28T01:55:43.288Z,17.46
2018-09-28T01:55:55.064Z,17.45
2018-09-28T01:56:06.810Z,17.46
2018-09-28T01:56:18.605Z,17.45
2018-09-28T01:56:30.370Z,17.45
2018-09-28T01:56:42.134Z,17.46
2018-09-28T01:56:54.006Z,17.46
2018-09-28T01:57:05.767Z,17.45
2018-09-28T01:57:17.518Z,17.45
2018-09-28T01:57:29.411Z,17.45
2018-09-28T01:57:41.159Z,17.45
2018-09-28T01:57:52.915Z,17.47
2018-09-28T01:58:04.683Z,17.45
2018-09-28T01:58:16.489Z,17.46
2018-09-28T01:58:28.251Z,17.47
2018-09-28T01:58:39.998Z,17.45
2018-09-28T01:58:51.763Z,17.46
2018-09-28T01:59:03.524Z,17.47
2018-09-28T01:59:15.268Z,17.46
2018-09-28T01:59:27.028Z,17.47
2018-09-28T01:59:38.782Z,17.45
2018-09-28T01:59:50.532Z,17.45
2018-09-28T02:00:02.278Z,17.45
2018-09-28T02:00:14.044Z,17.45
2018-09-28T02:00:25.796Z,17.45
2018-09-28T02:00:37.595Z,17.45
2018-09-28T02:00:49.334Z,17.45
2018-09-28T02:01:01.091Z,17.46
2018-09-28T02:01:12.840Z,17.45
2018-09-28T02:01:24.845Z,17.44
2018-09-28T02:01:36.589Z,17.44
2018-09-28T02:01:48.337Z,17.45
2018-09-28T02:02:00.099Z,17.44
2018-09-28T02:02:11.855Z,17.44
2018-09-28T02:02:23.599Z,17.44
2018-09-28T02:02:35.383Z,17.44
2018-09-28T02:02:47.132Z,17.45
2018-09-28T02:02:58.883Z,17.44
2018-09-28T02:03:10.647Z,17.45
2018-09-28T02:03:22.436Z,17.45
2018-09-28T02:03:34.194Z,17.44
2018-09-28T02:03:45.944Z,17.44
2018-09-28T02:03:57.699Z,17.45
2018-09-28T02:04:09.454Z,17.44
2018-09-28T02:04:21.205Z,17.46
2018-09-28T02:04:32.964Z,17.44
2018-09-28T02:04:44.717Z,17.44
2018-09-28T02:04:56.475Z,17.45
2018-09-28T02:05:08.239Z,17.45
2018-09-28T02:05:20.004Z,17.44
2018-09-28T02:05:31.763Z,17.44
2018-09-28T02:05:43.541Z,17.44
2018-09-28T02:05:55.295Z,17.46
2018-09-28T02:06:07.034Z,17.45
2018-09-28T02:06:18.793Z,17.46
2018-09-28T02:06:30.566Z,17.46
2018-09-28T02:06:42.305Z,17.46
2018-09-28T02:06:54.064Z,17.46
2018-09-28T02:07:05.811Z,17.46
2018-09-28T02:07:17.565Z,17.44
2018-09-28T02:07:29.310Z,17.45
2018-09-28T02:07:41.056Z,17.45
2018-09-28T02:07:53.264Z,17.45
2018-09-28T02:08:05.035Z,17.46
2018-09-28T02:08:16.777Z,17.45
2018-09-28T02:08:28.543Z,17.45
2018-09-28T02:08:40.297Z,17.46
2018-09-28T02:08:52.066Z,17.45
2018-09-28T02:09:04.695Z,17.45
2018-09-28T02:09:16.460Z,17.44
2018-09-28T02:09:28.230Z,17.44
2018-09-28T02:09:39.988Z,17.45
2018-09-28T02:09:51.751Z,17.45
2018-09-28T02:10:03.495Z,17.45
2018-09-28T02:10:15.243Z,17.44
2018-09-28T02:10:26.999Z,17.46
2018-09-28T02:10:38.756Z,17.45
2018-09-28T02:10:50.559Z,17.44
2018-09-28T02:11:02.314Z,17.45
2018-09-28T02:11:14.074Z,17.44
2018-09-28T02:11:26.219Z,17.45
2018-09-28T02:11:37.970Z,17.44
2018-09-28T02:11:49.730Z,17.44
2018-09-28T02:12:01.521Z,17.44
2018-09-28T02:12:13.267Z,17.44
2018-09-28T02:12:25.012Z,17.44
2018-09-28T02:12:36.931Z,17.44
2018-09-28T02:12:48.952Z,17.44
2018-09-28T02:13:00.701Z,17.43
2018-09-28T02:13:12.452Z,17.43
2018-09-28T02:13:24.197Z,17.43
2018-09-28T02:13:35.981Z,17.44
2018-09-28T02:13:47.724Z,17.44
2018-09-28T02:13:59.508Z,17.44
2018-09-28T02:14:11.256Z,17.44
2018-09-28T02:14:23.028Z,17.43
2018-09-28T02:14:34.783Z,17.43
2018-09-28T02:14:46.531Z,17.43
2018-09-28T02:14:58.281Z,17.43
2018-09-28T02:15:10.040Z,17.44
2018-09-28T02:15:21.792Z,17.44
2018-09-28T02:15:33.545Z,17.45
2018-09-28T02:15:45.320Z,17.44
2018-09-28T02:15:57.158Z,17.44
2018-09-28T02:16:08.898Z,17.43
2018-09-28T02:16:20.828Z,17.44
2018-09-28T02:16:32.591Z,17.45
2018-09-28T02:16:44.346Z,17.43
2018-09-28T02:16:56.354Z,17.43
2018-09-28T02:17:08.133Z,17.43
2018-09-28T02:17:19.892Z,17.43
2018-09-28T02:17:31.667Z,17.44
2018-09-28T02:17:43.429Z,17.43
2018-09-28T02:17:55.170Z,17.42
2018-09-28T02:18:07.011Z,17.43
2018-09-28T02:18:18.767Z,17.43
2018-09-28T02:18:30.531Z,17.42
2018-09-28T02:18:42.326Z,17.42
2018-09-28T02:18:54.091Z,17.42
2018-09-28T02:19:05.844Z,17.44
2018-09-28T02:19:17.591Z,17.43
2018-09-28T02:19:29.331Z,17.43
2018-09-28T02:19:41.080Z,17.44
2018-09-28T02:19:52.825Z,17.43
2018-09-28T02:20:04.616Z,17.43
2018-09-28T02:20:16.377Z,17.43
2018-09-28T02:20:28.128Z,17.43
2018-09-28T02:20:39.890Z,17.43
2018-09-28T02:20:51.640Z,17.43
2018-09-28T02:21:03.393Z,17.43
2018-09-28T02:21:15.136Z,17.43
2018-09-28T02:21:26.884Z,17.43
2018-09-28T02:21:38.628Z,17.43
2018-09-28T02:21:50.395Z,17.43
2018-09-28T02:22:02.144Z,17.43
2018-09-28T02:22:13.897Z,17.43
2018-09-28T02:22:25.649Z,17.43
2018-09-28T02:22:37.394Z,17.42
2018-09-28T02:22:49.178Z,17.42
2018-09-28T02:23:00.933Z,17.42
2018-09-28T02:23:12.680Z,17.44
2018-09-28T02:23:24.436Z,17.43
2018-09-28T02:23:36.235Z,17.42
2018-09-28T02:23:48.027Z,17.42
2018-09-28T02:23:59.794Z,17.42
2018-09-28T02:24:11.542Z,17.42
2018-09-28T02:24:23.294Z,17.42
2018-09-28T02:24:35.067Z,17.41
2018-09-28T02:24:46.823Z,17.41
2018-09-28T02:24:58.645Z,17.42
2018-09-28T02:25:10.436Z,17.41
2018-09-28T02:25:22.183Z,17.42
2018-09-28T02:25:33.930Z,17.42
2018-09-28T02:25:45.682Z,17.41
2018-09-28T02:25:57.456Z,17.42
2018-09-28T02:26:09.264Z,17.42
2018-09-28T02:26:21.021Z,17.43
2018-09-28T02:26:32.796Z,17.41
2018-09-28T02:26:44.544Z,17.42
2018-09-28T02:26:56.306Z,17.41
2018-09-28T02:27:08.064Z,17.41
2018-09-28T02:27:19.806Z,17.43
2018-09-28T02:27:31.556Z,17.41
2018-09-28T02:27:43.295Z,17.41
2018-09-28T02:27:55.049Z,17.41
2018-09-28T02:28:06.816Z,17.41
2018-09-28T02:28:18.600Z,17.42
2018-09-28T02:28:30.346Z,17.41
2018-09-28T02:28:42.097Z,17.42
2018-09-28T02:28:53.859Z,17.41
2018-09-28T02:29:05.611Z,17.42
2018-09-28T02:29:17.361Z,17.42
2018-09-28T02:29:29.200Z,17.42
2018-09-28T02:29:41.004Z,17.42
2018-09-28T02:29:52.779Z,17.41
2018-09-28T02:30:04.531Z,17.42
2018-09-28T02:30:16.286Z,17.42
2018-09-28T02:30:28.043Z,17.42
2018-09-28T02:30:39.804Z,17.42
2018-09-28T02:30:51.806Z,17.42
2018-09-28T02:31:03.579Z,17.43
2018-09-28T02:31:15.338Z,17.43
2018-09-28T02:31:27.103Z,17.42
2018-09-28T02:31:38.852Z,17.42